Time;durP1;ratioP1;P1;durP2;ratioP2;P2;SDS_P1;SDS_P2;PMS_P1;PMS_P2;Temp;Humidity;BMP_temperature;BMP_pressure;BME280_temperature;BME280_humidity;BME280_pressure;Samples;Min_cycle;Max_cycle;Signal;HPM_P1;HPM_P2
2023/10/18 00:01:29;;;;;;;14.33;11.53;;;;;;;6.04;75.11;95967.31;4990125;28;21263;-69
2023/10/18 00:03:55;;;;;;;15.90;12.63;;;;;;;6.08;75.05;95968.94;4989733;28;20478;-68
2023/10/18 00:06:22;;;;;;;14.07;12.03;;;;;;;6.24;74.33;95956.25;4989662;28;20440;-69
2023/10/18 00:08:48;;;;;;;12.73;11.40;;;;;;;6.29;74.20;95956.09;4990069;28;21339;-69
2023/10/18 00:11:15;;;;;;;18.23;12.23;;;;;;;6.18;74.38;95945.19;4989688;28;20420;-68
2023/10/18 00:13:41;;;;;;;14.20;11.93;;;;;;;5.80;75.68;95950.72;4989521;28;20419;-69
2023/10/18 00:16:07;;;;;;;13.40;12.03;;;;;;;5.88;75.33;95945.25;4989828;28;20458;-68
2023/10/18 00:18:34;;;;;;;17.63;11.67;;;;;;;5.71;76.00;95945.81;4989320;28;20416;-69
2023/10/18 00:21:00;;;;;;;14.77;11.87;;;;;;;5.75;75.30;95944.81;4989325;28;20255;-68
2023/10/18 00:23:27;;;;;;;14.47;11.30;;;;;;;5.73;75.79;95942.25;4989112;28;20842;-68
2023/10/18 00:25:53;;;;;;;13.37;11.97;;;;;;;5.72;75.60;95940.56;4988766;28;20455;-69
2023/10/18 00:28:20;;;;;;;13.30;11.03;;;;;;;5.89;75.08;95931.34;4989344;28;20412;-68
2023/10/18 00:30:45;;;;;;;14.47;12.10;;;;;;;5.87;74.45;95928.78;4989749;28;20487;-68
2023/10/18 00:33:11;;;;;;;15.00;12.63;;;;;;;5.67;75.74;95932.06;4979919;28;20422;-68
2023/10/18 00:35:39;;;;;;;14.83;13.00;;;;;;;5.67;75.60;95929.44;4969651;28;20829;-69
2023/10/18 00:38:07;;;;;;;13.63;12.20;;;;;;;5.92;74.47;95926.03;4969978;28;20537;-69
2023/10/18 00:43:29;;;;;;;14.60;11.70;;;;;;;5.60;75.48;95932.28;4969900;28;20555;-69
2023/10/18 00:45:55;;;;;;;14.10;11.70;;;;;;;5.46;75.92;95930.13;4969576;28;20284;-68
2023/10/18 00:48:24;;;;;;;13.50;11.47;;;;;;;5.75;74.97;95930.94;4969993;28;20432;-69
2023/10/18 00:50:52;;;;;;;11.90;10.47;;;;;;;5.23;76.82;95929.06;4969630;28;20440;-68
2023/10/18 00:53:30;;;;;;;12.63;11.33;;;;;;;5.45;75.90;95925.81;4969766;28;20416;-68
2023/10/18 00:55:59;;;;;;;16.50;11.73;;;;;;;5.44;75.88;95924.13;4969160;28;20432;-68
2023/10/18 00:58:27;;;;;;;17.23;13.37;;;;;;;5.40;76.05;95912.94;4969477;28;20409;-70
2023/10/18 01:00:52;;;;;;;13.70;12.23;;;;;;;5.48;75.93;95918.78;4969345;28;20499;-68
2023/10/18 01:03:35;;;;;;;16.13;12.37;;;;;;;5.23;76.74;95918.66;4969394;28;20568;-68
2023/10/18 01:06:00;;;;;;;16.93;12.10;;;;;;;5.14;77.43;95913.75;4969081;28;20197;-69
2023/10/18 01:08:30;;;;;;;15.57;12.77;;;;;;;5.35;76.58;95916.59;4969207;28;20577;-69
2023/10/18 01:11:04;;;;;;;16.80;12.00;;;;;;;5.27;76.87;95911.63;4969373;28;20253;-69
2023/10/18 01:13:30;;;;;;;16.60;13.33;;;;;;;5.34;76.34;95909.66;4968915;28;20410;-69
2023/10/18 01:15:56;;;;;;;15.40;12.30;;;;;;;5.00;77.46;95908.97;4968700;28;20445;-68
2023/10/18 01:18:22;;;;;;;14.60;12.30;;;;;;;4.91;78.29;95908.38;4968893;28;20891;-69
2023/10/18 01:20:48;;;;;;;16.10;12.60;;;;;;;5.23;76.63;95892.66;4968959;28;20853;-68
2023/10/18 01:23:13;;;;;;;17.13;11.60;;;;;;;4.93;78.00;95901.38;4969060;28;20507;-68
2023/10/18 01:25:38;;;;;;;13.77;12.27;;;;;;;5.01;77.46;95889.03;4968178;28;20210;-68
2023/10/18 01:28:05;;;;;;;14.60;13.07;;;;;;;5.00;77.31;95885.56;4968614;28;20201;-67
2023/10/18 01:30:32;;;;;;;15.67;12.00;;;;;;;5.05;77.61;95881.06;4968574;28;20184;-69
2023/10/18 01:32:58;;;;;;;16.93;13.20;;;;;;;5.08;76.88;95881.00;4976422;28;20412;-68
2023/10/18 01:35:23;;;;;;;17.30;13.20;;;;;;;5.05;77.24;95880.22;4987426;28;20470;-68
2023/10/18 01:37:50;;;;;;;18.37;13.80;;;;;;;5.04;77.31;95884.56;4987932;28;20184;-69
2023/10/18 01:42:56;;;;;;;15.50;12.60;;;;;;;5.00;77.35;95882.94;4987737;28;20463;-68
2023/10/18 01:45:37;;;;;;;15.03;11.93;;;;;;;4.85;78.18;95871.28;4987525;28;20440;-68
2023/10/18 01:48:06;;;;;;;16.40;12.47;;;;;;;4.67;78.52;95867.47;4987992;28;20408;-69
2023/10/18 01:50:32;;;;;;;15.50;13.30;;;;;;;4.78;78.68;95868.91;4988010;28;20522;-68
2023/10/18 01:52:59;;;;;;;16.10;12.43;;;;;;;4.94;77.88;95861.47;4988035;28;20865;-68
2023/10/18 01:55:31;;;;;;;15.13;13.33;;;;;;;4.95;78.02;95863.19;4987456;28;20189;-68
2023/10/18 01:57:58;;;;;;;16.43;13.37;;;;;;;4.88;78.39;95859.94;4987769;28;20415;-68
2023/10/18 02:00:34;;;;;;;14.57;12.87;;;;;;;4.90;77.68;95859.91;4987492;28;20956;-68
2023/10/18 02:03:00;;;;;;;18.33;12.27;;;;;;;4.80;78.14;95854.13;4988008;28;20787;-68
2023/10/18 02:05:26;;;;;;;15.60;12.83;;;;;;;4.78;78.53;95850.72;4987300;28;20442;-69
2023/10/18 02:07:55;;;;;;;16.17;13.27;;;;;;;4.73;79.12;95850.84;4970792;28;20428;-68
2023/10/18 02:10:22;;;;;;;16.70;12.03;;;;;;;4.79;78.68;95850.66;4990503;28;20420;-69
2023/10/18 02:12:48;;;;;;;20.23;13.93;;;;;;;5.05;77.73;95844.66;4988451;28;20466;-68
2023/10/18 02:15:15;;;;;;;16.13;13.90;;;;;;;4.99;78.08;95846.63;4989728;28;20886;-69
2023/10/18 02:17:43;;;;;;;16.00;13.13;;;;;;;4.98;77.67;95844.91;4991713;28;20181;-68
2023/10/18 02:20:28;;;;;;;15.40;13.17;;;;;;;4.92;77.45;95851.16;4990802;28;20907;-68
2023/10/18 02:23:01;;;;;;;16.80;14.43;;;;;;;4.66;79.38;95834.59;4990512;28;20472;-69
2023/10/18 02:25:42;;;;;;;16.40;12.90;;;;;;;5.04;77.37;95852.53;4990654;28;20451;-68
2023/10/18 02:28:27;;;;;;;18.20;13.97;;;;;;;5.16;76.67;95846.94;4989886;28;20566;-72
2023/10/18 02:31:21;;;;;;;15.07;12.90;;;;;;;4.85;77.87;95847.88;4992484;28;21218;-69
2023/10/18 02:33:44;;;;;;;15.67;13.57;;;;;;;5.05;77.57;95843.81;4974123;28;20429;-69
2023/10/18 02:36:11;;;;;;;14.50;11.97;;;;;;;5.07;77.31;95847.22;4969602;28;20437;-68
2023/10/18 02:38:41;;;;;;;17.60;14.77;;;;;;;4.96;77.48;95849.28;4969370;28;20795;-69
2023/10/18 02:41:17;;;;;;;16.43;13.27;;;;;;;5.12;76.75;95845.31;4969128;28;20511;-68
2023/10/18 02:43:45;;;;;;;18.93;13.80;;;;;;;5.35;75.99;95846.34;4979775;28;20420;-67
2023/10/18 02:46:13;;;;;;;16.17;14.47;;;;;;;5.15;76.91;95847.84;4977915;28;20428;-68
2023/10/18 02:48:41;;;;;;;18.67;13.57;;;;;;;5.06;76.86;95841.16;4982980;28;20416;-68
2023/10/18 02:51:06;;;;;;;14.87;13.27;;;;;;;4.93;77.18;95855.44;4971727;28;20416;-68
2023/10/18 02:53:37;;;;;;;19.13;13.70;;;;;;;5.07;77.31;95850.66;4971548;28;20891;-68
2023/10/18 02:56:04;;;;;;;21.10;14.20;;;;;;;5.37;75.91;95850.59;4972309;28;20213;-67
2023/10/18 02:58:32;;;;;;;20.90;14.23;;;;;;;5.15;76.60;95846.97;4971586;28;20413;-68
2023/10/18 03:01:05;;;;;;;16.93;13.47;;;;;;;4.75;78.08;95845.59;4971746;28;20502;-69
2023/10/18 03:03:33;;;;;;;16.23;13.97;;;;;;;5.05;77.48;95842.06;4971955;28;20437;-69
2023/10/18 03:06:06;;;;;;;17.80;14.97;;;;;;;5.21;76.52;95846.78;4971690;28;20425;-69
2023/10/18 03:08:32;;;;;;;19.73;13.87;;;;;;;5.28;76.30;95843.94;4971792;28;21108;-68
2023/10/18 03:11:00;;;;;;;17.50;14.60;;;;;;;5.33;75.83;95838.59;4971512;28;20405;-69
2023/10/18 03:13:26;;;;;;;19.77;15.00;;;;;;;5.11;75.98;95835.81;4971547;28;21085;-68
2023/10/18 03:16:04;;;;;;;18.23;14.63;;;;;;;5.16;76.36;95833.94;4971511;28;20588;-69
2023/10/18 03:18:31;;;;;;;22.30;15.20;;;;;;;4.96;77.32;95826.75;4971188;28;20572;-68
2023/10/18 03:20:57;;;;;;;18.93;15.47;;;;;;;4.87;77.91;95827.88;4971073;28;20518;-69
2023/10/18 03:23:26;;;;;;;21.53;17.47;;;;;;;4.93;77.99;95828.59;4971292;28;20464;-69
2023/10/18 03:26:08;;;;;;;17.60;15.20;;;;;;;4.73;78.66;95831.81;4970635;28;20398;-69
2023/10/18 03:28:34;;;;;;;21.10;15.57;;;;;;;4.71;78.62;95825.81;4970866;28;20950;-69
2023/10/18 03:31:44;;;;;;;16.93;13.73;;;;;;;4.96;77.62;95831.09;4971160;28;20413;-68
2023/10/18 03:34:02;;;;;;;18.10;14.80;;;;;;;4.89;77.71;95820.06;4987081;28;20443;-68
2023/10/18 03:36:32;;;;;;;18.60;16.10;;;;;;;5.30;76.24;95818.72;4990354;28;20439;-67
2023/10/18 03:39:21;;;;;;;18.00;15.53;;;;;;;5.09;77.29;95822.84;4990458;28;20427;-68
2023/10/18 03:41:53;;;;;;;20.27;15.53;;;;;;;4.70;78.09;95806.78;4989863;28;20994;-68
2023/10/18 03:44:22;;;;;;;21.37;16.90;;;;;;;4.50;79.46;95812.53;4990001;28;21313;-68
2023/10/18 03:46:48;;;;;;;20.23;15.73;;;;;;;4.40;79.57;95813.72;4990212;28;20418;-67
2023/10/18 03:49:39;;;;;;;20.10;16.40;;;;;;;4.34;80.28;95819.06;4990352;28;20412;-69
2023/10/18 03:54:45;;;;;;;27.30;17.20;;;;;;;4.16;81.04;95825.66;4991172;28;20454;-68
2023/10/18 03:57:18;;;;;;;22.77;16.57;;;;;;;4.17;81.04;95833.38;4989915;28;20474;-70
2023/10/18 03:59:48;;;;;;;24.70;18.13;;;;;;;4.44;80.38;95828.28;4990080;28;20502;-68
2023/10/18 04:04:48;;;;;;;24.13;17.10;;;;;;;4.14;80.53;95817.91;4989939;28;20439;-68
2023/10/18 04:07:20;;;;;;;21.50;16.47;;;;;;;3.96;81.45;95818.41;4990282;28;20412;-68
2023/10/18 04:12:27;;;;;;;23.20;18.93;;;;;;;4.06;81.66;95801.66;4966093;28;20429;-69
2023/10/18 04:14:53;;;;;;;27.10;18.70;;;;;;;4.01;81.39;95799.19;4969213;28;20437;-68
2023/10/18 04:17:31;;;;;;;23.87;17.33;;;;;;;4.08;81.35;95799.03;4969274;28;20463;-67
2023/10/18 04:19:57;;;;;;;25.57;18.10;;;;;;;4.19;81.14;95784.00;4970348;28;20922;-68
2023/10/18 04:22:23;;;;;;;25.83;19.10;;;;;;;4.11;81.61;95783.38;4971432;28;20456;-68
2023/10/18 04:24:49;;;;;;;24.80;20.57;;;;;;;4.28;80.55;95781.16;4969668;28;20475;-67
2023/10/18 04:27:14;;;;;;;25.10;19.23;;;;;;;4.29;81.10;95766.41;4968741;28;20260;-69
2023/10/18 04:29:40;;;;;;;27.60;19.30;;;;;;;4.18;81.45;95767.59;4968283;28;20851;-71
2023/10/18 04:32:06;;;;;;;25.33;18.60;;;;;;;4.44;80.42;95771.16;4969192;28;20177;-69
2023/10/18 04:34:34;;;;;;;26.53;18.67;;;;;;;4.30;80.75;95768.09;4987126;28;20204;-69
2023/10/18 04:37:06;;;;;;;26.30;20.17;;;;;;;4.63;79.02;95763.63;4987152;28;20408;-69
2023/10/18 04:39:31;;;;;;;23.70;17.87;;;;;;;4.07;81.81;95761.00;4987018;28;20447;-69
2023/10/18 04:41:57;;;;;;;24.53;18.60;;;;;;;4.31;80.31;95744.69;4986696;28;20443;-69
2023/10/18 04:44:23;;;;;;;25.93;18.23;;;;;;;4.28;80.92;95739.59;4986467;28;20329;-68
2023/10/18 04:46:52;;;;;;;25.00;17.67;;;;;;;4.15;81.01;95743.44;4987056;28;20181;-68
2023/10/18 04:49:25;;;;;;;27.03;19.20;;;;;;;4.20;81.21;95744.16;4987366;28;20412;-67
2023/10/18 04:51:54;;;;;;;25.23;19.50;;;;;;;4.29;81.15;95740.44;4986866;28;20423;-68
2023/10/18 04:54:27;;;;;;;31.90;21.77;;;;;;;4.36;80.49;95747.16;4986630;28;20455;-68
2023/10/18 04:56:56;;;;;;;24.83;18.80;;;;;;;4.50;79.61;95746.75;4981876;28;20557;-69
2023/10/18 04:59:40;;;;;;;26.43;18.30;;;;;;;4.39;79.96;95742.75;4965615;28;20462;-73
2023/10/18 05:02:16;;;;;;;27.60;19.20;;;;;;;4.60;79.53;95740.34;4965863;28;20472;-73
2023/10/18 05:04:41;;;;;;;25.00;20.20;;;;;;;4.35;79.99;95740.28;4966360;28;20567;-73
2023/10/18 05:09:41;;;;;;;24.10;17.77;;;;;;;4.42;80.10;95723.59;4965712;28;20244;-72
2023/10/18 05:14:44;;;;;;;23.23;19.13;;;;;;;4.35;80.36;95737.69;4962386;28;20839;-72
2023/10/18 05:17:10;;;;;;;25.40;18.37;;;;;;;4.19;81.44;95739.88;4967786;28;20445;-72
2023/10/18 05:19:41;;;;;;;24.80;18.13;;;;;;;4.12;81.21;95749.59;4967939;28;20432;-73
2023/10/18 05:24:46;;;;;;;26.63;18.97;;;;;;;3.85;81.51;95746.03;4969365;28;20452;-72
2023/10/18 05:27:24;;;;;;;24.07;18.20;;;;;;;4.14;81.17;95750.41;4969779;28;20413;-73
2023/10/18 05:30:08;;;;;;;30.80;19.37;;;;;;;3.90;82.70;95759.75;4969457;28;20415;-73
2023/10/18 05:37:50;;;;;;;27.50;19.67;;;;;;;4.60;79.57;95742.94;4970032;28;20196;-72
2023/10/18 05:43:03;;;;;;;25.83;17.20;;;;;;;4.57;79.33;95740.47;4969214;28;20504;-73
2023/10/18 05:45:31;;;;;;;29.47;19.93;;;;;;;4.19;80.93;95747.66;4968720;28;21015;-73
2023/10/18 05:48:13;;;;;;;26.27;20.10;;;;;;;3.98;81.83;95739.59;4969320;28;20413;-72
2023/10/18 05:50:39;;;;;;;26.00;19.30;;;;;;;4.06;81.97;95744.56;4969557;28;20417;-73
2023/10/18 05:53:11;;;;;;;27.87;20.90;;;;;;;4.14;81.22;95731.38;4969477;28;20444;-74
2023/10/18 05:55:40;;;;;;;32.73;21.00;;;;;;;4.49;79.93;95726.84;4968643;28;20444;-73
2023/10/18 05:58:06;;;;;;;23.93;19.27;;;;;;;4.30;80.94;95731.75;4969289;28;20417;-72
2023/10/18 06:00:35;;;;;;;28.17;19.50;;;;;;;4.47;79.75;95731.25;4969139;28;20488;-72
2023/10/18 06:03:01;;;;;;;34.27;19.63;;;;;;;4.44;80.75;95739.97;4968819;28;20348;-73
2023/10/18 06:05:35;;;;;;;26.67;18.50;;;;;;;4.41;79.95;95743.50;4967708;28;20494;-72
2023/10/18 06:08:01;;;;;;;27.70;19.50;;;;;;;4.29;80.35;95724.88;4968388;28;20531;-72
2023/10/18 06:10:26;;;;;;;27.47;20.23;;;;;;;4.53;79.86;95718.91;4969682;28;20507;-73
2023/10/18 06:13:05;;;;;;;34.53;20.90;;;;;;;4.31;80.41;95721.31;4968959;28;20178;-72
2023/10/18 06:15:38;;;;;;;30.53;18.87;;;;;;;4.37;80.46;95728.06;4970270;28;20203;-73
2023/10/18 06:18:05;;;;;;;25.87;19.40;;;;;;;4.56;79.82;95730.94;4971002;28;20459;-73
2023/10/18 06:20:35;;;;;;;26.60;19.50;;;;;;;4.46;80.06;95727.78;4970838;28;20421;-73
2023/10/18 06:23:09;;;;;;;34.10;21.60;;;;;;;4.34;80.08;95726.41;4971144;28;20616;-73
2023/10/18 06:25:38;;;;;;;30.77;20.13;;;;;;;4.23;81.18;95746.69;4971201;28;20462;-73
2023/10/18 06:28:09;;;;;;;30.97;21.47;;;;;;;4.30;81.10;95737.81;4971866;28;20413;-73
2023/10/18 06:30:39;;;;;;;27.50;19.87;;;;;;;4.62;79.92;95733.38;4971317;28;20425;-74
2023/10/18 06:33:09;;;;;;;27.77;20.03;;;;;;;4.55;80.20;95737.06;4980473;28;20425;-73
2023/10/18 06:35:53;;;;;;;27.10;20.60;;;;;;;4.93;78.68;95735.00;4990288;28;20460;-73
2023/10/18 06:38:23;;;;;;;29.23;19.47;;;;;;;4.64;79.03;95726.38;4990472;28;20420;-74
2023/10/18 06:40:53;;;;;;;36.77;20.40;;;;;;;4.49;79.53;95729.44;4990195;28;20502;-73
2023/10/18 06:43:20;;;;;;;30.47;19.40;;;;;;;4.20;82.00;95731.16;4989943;28;20455;-72
2023/10/18 06:45:46;;;;;;;27.07;17.60;;;;;;;4.22;81.64;95706.84;4989312;28;20455;-73
2023/10/18 06:48:14;;;;;;;28.90;19.57;;;;;;;4.12;81.95;95708.03;4990857;28;20530;-72
2023/10/18 06:50:40;;;;;;;25.17;18.33;;;;;;;4.04;82.91;95710.03;4990889;28;20420;-72
2023/10/18 06:53:06;;;;;;;29.70;20.40;;;;;;;4.44;81.59;95714.00;4989597;28;20212;-73
2023/10/18 06:58:14;;;;;;;37.80;23.63;;;;;;;6.63;79.33;95702.88;4989970;28;20207;-73
2023/10/18 07:00:44;;;;;;;37.20;21.17;;;;;;;6.05;77.49;95705.97;4990386;28;20420;-73
2023/10/18 07:03:18;;;;;;;24.57;19.10;;;;;;;5.35;77.59;95713.66;4990695;28;20452;-74
2023/10/18 07:05:52;;;;;;;34.37;19.43;;;;;;;4.96;78.95;95712.34;4990203;28;20439;-73
2023/10/18 07:08:23;;;;;;;27.43;18.53;;;;;;;4.83;79.54;95708.44;4990558;28;20452;-73
2023/10/18 07:10:56;;;;;;;25.37;18.40;;;;;;;4.63;79.86;95707.34;4990252;28;20431;-73
2023/10/18 07:13:35;;;;;;;31.80;19.00;;;;;;;4.47;80.84;95720.88;4990373;28;20552;-72
2023/10/18 07:16:06;;;;;;;39.13;18.93;;;;;;;4.69;79.58;95719.28;4990240;28;20436;-72
2023/10/18 07:18:35;;;;;;;22.07;16.57;;;;;;;4.49;80.15;95714.72;4990514;28;20423;-73
2023/10/18 07:21:05;;;;;;;25.83;16.40;;;;;;;4.47;81.15;95702.69;4989870;28;20436;-73
2023/10/18 07:23:36;;;;;;;27.33;19.93;;;;;;;4.77;80.03;95695.63;4989469;28;20458;-72
2023/10/18 07:26:07;;;;;;;25.07;18.60;;;;;;;4.66;80.74;95696.84;4989840;28;20588;-72
2023/10/18 07:28:36;;;;;;;27.10;18.17;;;;;;;4.15;81.62;95700.16;4972502;28;20424;-72
2023/10/18 07:31:08;;;;;;;29.23;18.70;;;;;;;4.42;81.54;95706.25;4982105;28;20452;-73
2023/10/18 07:33:36;;;;;;;27.87;21.47;;;;;;;4.46;81.57;95694.00;4978592;28;20435;-72
2023/10/18 07:36:02;;;;;;;24.87;18.50;;;;;;;4.70;80.90;95697.59;4975718;28;20444;-72
2023/10/18 07:38:28;;;;;;;32.80;18.07;;;;;;;4.50;80.16;95699.97;4971823;28;20467;-73
2023/10/18 07:40:59;;;;;;;42.07;21.57;;;;;;;4.25;81.23;95698.13;4969922;28;20184;-74
2023/10/18 07:43:25;;;;;;;27.67;18.57;;;;;;;4.37;81.89;95700.38;4976861;28;20456;-73
2023/10/18 07:45:54;;;;;;;24.63;18.17;;;;;;;4.42;81.21;95700.22;4973473;28;20441;-74
2023/10/18 07:48:19;;;;;;;25.23;17.97;;;;;;;4.45;81.52;95700.97;4980057;28;20188;-73
2023/10/18 07:50:54;;;;;;;36.17;18.50;;;;;;;4.34;82.14;95705.63;4972979;28;20440;-76
2023/10/18 07:53:20;;;;;;;27.70;18.80;;;;;;;4.64;80.45;95697.78;4971212;28;20180;-74
2023/10/18 07:55:56;;;;;;;34.83;20.87;;;;;;;4.73;80.36;95687.09;4971773;28;20560;-74
2023/10/18 07:58:26;;;;;;;29.03;20.67;;;;;;;4.77;80.37;95688.72;4973764;28;20437;-74
2023/10/18 08:03:32;;;;;;;29.70;19.30;;;;;;;4.59;80.34;95687.53;4972379;28;20987;-75
2023/10/18 08:05:59;;;;;;;25.07;15.73;;;;;;;6.24;94.39;95677.47;4973666;28;20539;-74
2023/10/18 08:08:25;;;;;;;28.10;16.37;;;;;;;8.27;88.58;95667.09;4971403;28;20461;-75
2023/10/18 08:10:54;;;;;;;29.20;20.57;;;;;;;7.18;73.70;95671.06;4961831;28;20448;-75
2023/10/18 08:13:26;;;;;;;27.87;15.87;;;;;;;7.91;72.31;95663.56;4972749;28;20456;-75
2023/10/18 08:15:56;;;;;;;25.83;15.90;;;;;;;8.75;71.16;95651.78;4972240;28;20445;-75
2023/10/18 08:18:39;;;;;;;27.40;16.80;;;;;;;6.66;72.25;95660.19;4973928;28;20932;-75
2023/10/18 08:21:08;;;;;;;20.83;16.57;;;;;;;5.84;80.09;95650.28;4966427;28;20472;-75
2023/10/18 08:23:35;;;;;;;23.70;16.47;;;;;;;6.57;80.71;95644.00;4971107;28;20476;-75
2023/10/18 08:26:04;;;;;;;25.70;16.97;;;;;;;6.88;79.96;95639.31;4971997;28;21074;-76
2023/10/18 08:28:41;;;;;;;23.67;16.37;;;;;;;7.41;78.63;95644.00;4969788;28;20417;-76
2023/10/18 08:31:26;;;;;;;21.10;15.83;;;;;;;8.23;74.06;95638.56;4974076;28;20436;-76
2023/10/18 08:33:55;;;;;;;23.13;17.13;;;;;;;7.75;71.80;95651.19;4971295;28;20440;-75
2023/10/18 08:36:29;;;;;;;24.50;17.83;;;;;;;6.29;72.80;95643.41;4971900;28;20554;-75
2023/10/18 08:38:56;;;;;;;21.57;17.57;;;;;;;5.65;76.02;95633.66;4972355;28;20441;-74
2023/10/18 08:41:31;;;;;;;22.10;17.97;;;;;;;5.25;78.21;95638.53;4972035;28;20493;-73
2023/10/18 08:44:21;;;;;;;27.53;18.03;;;;;;;5.07;78.65;95637.41;4971893;28;20408;-74
2023/10/18 08:49:23;;;;;;;28.10;18.80;;;;;;;4.67;80.28;95617.13;4972352;28;20425;-75
2023/10/18 08:52:06;;;;;;;26.03;18.20;;;;;;;4.30;82.63;95627.84;4972208;28;20444;-75
2023/10/18 08:54:33;;;;;;;22.47;17.57;;;;;;;4.51;81.57;95636.72;4972665;28;20445;-74
2023/10/18 08:57:06;;;;;;;34.80;20.50;;;;;;;5.06;79.46;95646.13;4971913;28;20444;-75
2023/10/18 08:59:42;;;;;;;27.17;20.07;;;;;;;4.89;80.65;95635.47;4972191;28;20414;-75
2023/10/18 09:02:18;;;;;;;30.03;19.00;;;;;;;4.72;80.03;95640.34;4972037;28;20540;-74
2023/10/18 09:04:59;;;;;;;31.67;19.13;;;;;;;5.02;79.97;95651.50;4971876;28;20442;-75
2023/10/18 09:07:45;;;;;;;24.73;18.73;;;;;;;5.37;78.36;95634.66;4972474;28;20420;-75
2023/10/18 09:15:35;;;;;;;24.93;18.87;;;;;;;4.62;81.99;95650.22;4971840;28;20438;-75
2023/10/18 09:18:04;;;;;;;31.57;20.73;;;;;;;5.12;79.63;95647.66;4971624;28;20804;-75
2023/10/18 09:20:31;;;;;;;25.37;19.67;;;;;;;5.20;79.06;95647.41;4971709;28;20517;-74
2023/10/18 09:23:04;;;;;;;28.97;19.77;;;;;;;5.08;79.99;95639.13;4971965;28;20497;-74
2023/10/18 09:25:47;;;;;;;30.13;21.37;;;;;;;5.44;78.39;95632.69;4972034;28;21097;-74
2023/10/18 09:28:19;;;;;;;27.60;18.80;;;;;;;5.43;78.31;95633.56;4971661;28;20532;-74
2023/10/18 09:30:45;;;;;;;25.80;18.70;;;;;;;5.36;78.23;95626.88;4972052;28;20432;-76
2023/10/18 09:33:13;;;;;;;20.93;17.03;;;;;;;5.28;77.64;95625.41;4971974;28;20413;-75
2023/10/18 09:35:39;;;;;;;28.17;19.13;;;;;;;4.83;79.45;95623.50;4971865;28;21099;-75
2023/10/18 09:38:08;;;;;;;23.80;17.23;;;;;;;5.23;78.29;95622.13;4971529;28;20444;-75
2023/10/18 09:40:37;;;;;;;25.87;18.60;;;;;;;5.15;78.60;95612.88;4971896;28;21094;-75
2023/10/18 09:43:03;;;;;;;28.53;19.23;;;;;;;5.04;78.61;95621.94;4973816;28;20467;-75
2023/10/18 09:45:28;;;;;;;23.17;19.33;;;;;;;5.40;77.84;95618.06;4971210;28;20441;-75
2023/10/18 09:47:58;;;;;;;23.03;17.70;;;;;;;5.35;77.55;95601.78;4971571;28;20427;-75
2023/10/18 09:50:28;;;;;;;21.90;16.93;;;;;;;5.13;78.57;95604.31;4971653;28;20232;-75
2023/10/18 09:52:59;;;;;;;25.33;17.60;;;;;;;5.27;77.99;95602.06;4971876;28;20448;-75
2023/10/18 09:55:27;;;;;;;21.80;17.20;;;;;;;5.55;77.31;95593.25;4970714;28;20429;-74
2023/10/18 09:58:02;;;;;;;28.63;20.30;;;;;;;5.54;76.87;95586.34;4971265;28;20417;-74
2023/10/18 10:00:41;;;;;;;20.27;17.37;;;;;;;5.72;76.21;95578.69;4971591;28;20417;-75
2023/10/18 10:03:08;;;;;;;25.70;20.07;;;;;;;5.61;76.41;95575.66;4971606;28;21309;-75
2023/10/18 10:05:41;;;;;;;24.73;18.20;;;;;;;5.61;76.89;95578.25;4971458;28;20465;-75
2023/10/18 10:08:07;;;;;;;29.90;17.43;;;;;;;5.66;77.24;95586.72;4971468;28;20931;-74
2023/10/18 10:10:45;;;;;;;30.80;19.17;;;;;;;6.01;75.77;95586.34;4971389;28;21112;-75
2023/10/18 10:13:17;;;;;;;30.83;18.40;;;;;;;5.95;75.78;95590.00;4971830;28;20450;-75
2023/10/18 10:15:46;;;;;;;52.47;19.90;;;;;;;5.97;75.75;95585.59;4971767;28;20436;-75
2023/10/18 10:18:13;;;;;;;24.97;18.80;;;;;;;5.67;76.41;95577.16;4971756;28;20935;-76
2023/10/18 10:20:42;;;;;;;33.63;19.57;;;;;;;5.69;77.22;95586.63;4971692;28;20461;-75
2023/10/18 10:23:15;;;;;;;29.20;19.83;;;;;;;5.73;77.03;95587.34;4972142;28;20465;-75
2023/10/18 10:26:10;;;;;;;28.63;20.73;;;;;;;5.50;77.46;95583.88;4969699;28;20444;-74
2023/10/18 10:31:55;;;;;;;27.77;19.00;;;;;;;5.83;76.56;95559.22;4970590;28;20435;-74
2023/10/18 10:34:32;;;;;;;24.80;17.83;;;;;;;5.75;76.68;95563.88;4988771;28;20414;-74
2023/10/18 10:37:09;;;;;;;24.13;17.83;;;;;;;5.85;76.21;95562.59;4990595;28;20757;-75
2023/10/18 10:42:43;;;;;;;21.83;18.03;;;;;;;5.52;77.14;95540.41;4969129;28;20506;-75
2023/10/18 10:45:30;;;;;;;24.90;17.70;;;;;;;5.65;77.11;95535.59;4989989;28;20432;-75
2023/10/18 10:48:37;;;;;;;27.40;19.43;;;;;;;5.71;76.48;95530.13;4991555;28;20419;-74
2023/10/18 10:51:16;;;;;;;25.80;18.50;;;;;;;5.67;77.28;95522.50;4990403;28;21081;-75
2023/10/18 10:54:08;;;;;;;28.57;18.80;;;;;;;5.60;77.03;95511.50;4990448;28;20977;-75
2023/10/18 10:56:33;;;;;;;23.63;18.47;;;;;;;5.71;77.23;95514.50;4990925;28;20437;-74
2023/10/18 10:59:03;;;;;;;29.30;20.47;;;;;;;5.35;78.64;95518.53;4990596;28;20770;-74
2023/10/18 11:01:44;;;;;;;30.57;18.90;;;;;;;5.61;77.62;95512.34;4990615;28;20935;-74
2023/10/18 11:04:24;;;;;;;28.37;19.83;;;;;;;5.96;76.49;95517.97;4990155;28;20420;-74
2023/10/18 11:06:56;;;;;;;28.30;20.30;;;;;;;5.77;76.76;95517.81;4991275;28;20794;-74
2023/10/18 11:09:32;;;;;;;27.60;19.90;;;;;;;5.81;76.90;95498.53;4992649;28;20842;-75
2023/10/18 11:12:01;;;;;;;29.20;19.37;;;;;;;5.87;77.05;95488.72;4994062;28;20404;-75
2023/10/18 11:14:29;;;;;;;31.87;19.70;;;;;;;5.98;76.72;95483.13;4993762;28;20990;-74
2023/10/18 11:17:03;;;;;;;38.60;22.37;;;;;;;6.45;74.86;95479.44;4994256;28;20414;-76
2023/10/18 11:19:29;;;;;;;40.13;19.27;;;;;;;6.49;74.92;95476.66;4994028;28;20191;-75
2023/10/18 11:21:58;;;;;;;27.00;20.70;;;;;;;6.48;75.12;95477.56;4982772;28;20457;-75
2023/10/18 11:24:24;;;;;;;29.37;20.00;;;;;;;6.51;74.39;95468.78;4971516;28;20696;-75
2023/10/18 11:26:51;;;;;;;25.80;19.10;;;;;;;6.34;74.72;95462.53;4974038;28;20436;-75
2023/10/18 11:29:24;;;;;;;25.93;18.50;;;;;;;6.53;75.17;95470.41;4974655;28;20477;-75
2023/10/18 11:31:58;;;;;;;27.73;21.30;;;;;;;6.66;74.70;95462.91;4975835;28;20459;-75
2023/10/18 11:34:23;;;;;;;26.87;20.30;;;;;;;6.81;73.70;95468.38;4976953;28;20478;-75
2023/10/18 11:37:01;;;;;;;23.57;17.83;;;;;;;6.75;73.17;95464.25;4974163;28;20448;-75
2023/10/18 11:39:32;;;;;;;27.13;19.80;;;;;;;7.17;72.10;95455.44;4973804;28;20173;-75
2023/10/18 11:42:02;;;;;;;26.30;18.20;;;;;;;7.49;71.26;95451.34;4974217;28;20575;-74
2023/10/18 11:44:35;;;;;;;32.80;19.70;;;;;;;7.57;70.86;95446.59;4973164;28;20433;-74
2023/10/18 11:47:12;;;;;;;25.83;19.07;;;;;;;7.59;71.12;95451.75;4968533;28;20459;-73
2023/10/18 11:49:40;;;;;;;27.87;18.77;;;;;;;7.50;71.91;95445.19;4972937;28;20852;-74
2023/10/18 11:52:16;;;;;;;23.07;18.80;;;;;;;7.51;71.30;95438.19;4973522;28;20868;-74
2023/10/18 11:54:43;;;;;;;29.07;21.53;;;;;;;7.36;72.14;95438.00;4973585;28;20539;-75
2023/10/18 11:57:46;;;;;;;25.30;18.93;;;;;;;7.47;71.89;95429.69;4974168;28;20444;-75
2023/10/18 12:02:44;;;;;;;22.53;18.40;;;;;;;7.32;71.98;95426.03;4971768;28;20480;-71
2023/10/18 12:05:17;;;;;;;20.20;17.30;;;;;;;7.19;72.22;95425.75;4973525;28;20875;-72
2023/10/18 12:07:46;;;;;;;26.03;20.50;;;;;;;7.21;71.84;95425.69;4979461;28;20449;-72
2023/10/18 12:10:25;;;;;;;27.57;19.10;;;;;;;7.23;72.59;95421.25;4978281;28;20432;-73
2023/10/18 12:12:53;;;;;;;24.57;18.70;;;;;;;7.09;72.93;95424.47;4973403;28;20437;-72
2023/10/18 12:15:19;;;;;;;21.73;18.53;;;;;;;7.25;72.57;95419.38;4973342;28;20436;-72
2023/10/18 12:17:46;;;;;;;32.30;19.47;;;;;;;6.88;73.70;95420.25;4972792;28;20451;-72
2023/10/18 12:20:12;;;;;;;27.00;20.10;;;;;;;7.25;73.02;95415.94;4976596;28;20483;-72
2023/10/18 12:22:42;;;;;;;24.07;18.87;;;;;;;7.40;72.45;95410.00;4974122;28;20459;-72
2023/10/18 12:25:09;;;;;;;31.60;19.90;;;;;;;7.53;72.18;95394.59;4973128;28;20464;-72
2023/10/18 12:27:35;;;;;;;29.90;20.50;;;;;;;7.57;72.88;95398.75;4974273;28;20428;-72
2023/10/18 12:30:27;;;;;;;27.43;20.20;;;;;;;7.63;71.54;95401.09;4972927;28;20436;-71
2023/10/18 12:32:51;;;;;;;49.27;21.30;;;;;;;7.34;73.64;95392.84;4973425;28;20553;-73